Time;durP1;ratioP1;P1;durP2;ratioP2;P2;SDS_P1;SDS_P2;PMS_P1;PMS_P2;Temp;Humidity;BMP_temperature;BMP_pressure;BME280_temperature;BME280_humidity;BME280_pressure;Samples;Min_cycle;Max_cycle;Signal;HPM_P1;HPM_P2
2022/04/17 00:00:47;;;;;;;7.80;1.60;;;;;;;;;;5087745;28;20060;-74
2022/04/17 00:03:18;;;;;;;13.88;1.77;;;;;;;;;;5068911;28;20055;-73
2022/04/17 00:05:49;;;;;;;5.60;1.55;;;;;;;;;;5087102;28;20052;-73
2022/04/17 00:08:20;;;;;;;9.38;1.60;;;;;;;;;;5086619;28;20486;-73
2022/04/17 00:10:50;;;;;;;13.30;1.90;;;;;;;;;;5087948;28;20044;-73
2022/04/17 00:13:20;;;;;;;5.78;1.30;;;;;;;;;;5087976;28;20048;-73
2022/04/17 00:15:51;;;;;;;9.35;1.73;;;;;;;;;;5086954;28;20465;-73
2022/04/17 00:18:21;;;;;;;10.65;1.92;;;;;;;;;;5087377;28;20059;-73
2022/04/17 00:20:52;;;;;;;8.23;1.38;;;;;;;;;;5086564;28;20074;-74
2022/04/17 00:23:23;;;;;;;8.77;2.00;;;;;;;;;;5087775;28;20040;-73
2022/04/17 00:25:53;;;;;;;13.80;1.73;;;;;;;;;;5087273;28;20055;-73
2022/04/17 00:28:23;;;;;;;8.73;1.85;;;;;;;;;;5086834;28;20047;-73
2022/04/17 00:30:54;;;;;;;7.65;1.90;;;;;;;;;;5069190;28;20087;-73
2022/04/17 00:33:24;;;;;;;13.05;2.28;;;;;;;;;;5084070;28;20060;-73
2022/04/17 00:35:54;;;;;;;12.00;1.65;;;;;;;;;;5084551;28;20055;-74
2022/04/17 00:38:24;;;;;;;9.23;1.50;;;;;;;;;;5085253;28;20055;-73
2022/04/17 00:40:55;;;;;;;13.23;2.47;;;;;;;;;;5086074;28;20052;-73
2022/04/17 00:43:26;;;;;;;10.98;1.85;;;;;;;;;;5086934;28;20487;-74
2022/04/17 00:45:57;;;;;;;17.55;2.28;;;;;;;;;;5067997;28;20066;-74
2022/04/17 00:48:27;;;;;;;5.47;1.60;;;;;;;;;;5086879;28;20044;-73
2022/04/17 00:50:58;;;;;;;12.57;1.85;;;;;;;;;;5086012;28;20048;-73
2022/04/17 00:53:29;;;;;;;8.00;1.50;;;;;;;;;;5086531;28;20052;-74
2022/04/17 00:55:59;;;;;;;6.45;1.65;;;;;;;;;;5085872;28;20045;-73
2022/04/17 00:58:32;;;;;;;12.25;1.92;;;;;;;;;;5086299;28;20044;-73
2022/04/17 01:01:02;;;;;;;9.57;2.53;;;;;;;;;;5086647;28;20939;-73
2022/04/17 01:03:32;;;;;;;8.50;2.10;;;;;;;;;;5086683;28;20051;-74
2022/04/17 01:06:02;;;;;;;13.50;2.28;;;;;;;;;;5085536;28;20514;-74
2022/04/17 01:08:34;;;;;;;7.95;1.98;;;;;;;;;;5086891;28;20052;-74
2022/04/17 01:11:04;;;;;;;12.05;1.90;;;;;;;;;;5086622;28;20055;-74
2022/04/17 01:13:36;;;;;;;10.15;2.20;;;;;;;;;;5086545;28;20048;-74
2022/04/17 01:16:07;;;;;;;16.67;2.15;;;;;;;;;;5086769;28;20052;-74
2022/04/17 01:19:00;;;;;;;9.38;1.95;;;;;;;;;;5087538;28;20044;-74
2022/04/17 01:21:32;;;;;;;12.48;1.90;;;;;;;;;;5086750;28;20051;-74
2022/04/17 01:26:58;;;;;;;11.57;1.85;;;;;;;;;;5086017;28;20075;-74
2022/04/17 01:29:31;;;;;;;11.10;1.70;;;;;;;;;;5069719;28;20110;-74
2022/04/17 01:32:04;;;;;;;7.07;1.92;;;;;;;;;;5085247;28;20055;-73
2022/04/17 01:34:36;;;;;;;11.95;1.83;;;;;;;;;;5068651;28;20040;-74
2022/04/17 01:37:06;;;;;;;10.77;1.52;;;;;;;;;;5085930;28;20039;-74
2022/04/17 01:39:36;;;;;;;9.85;1.50;;;;;;;;;;5086423;28;20585;-73
2022/04/17 01:42:06;;;;;;;9.38;2.08;;;;;;;;;;5086270;28;20122;-74
2022/04/17 01:44:37;;;;;;;7.68;1.58;;;;;;;;;;5086444;28;20048;-73
2022/04/17 01:47:08;;;;;;;14.68;2.25;;;;;;;;;;5086612;28;20105;-74
2022/04/17 01:49:38;;;;;;;9.68;1.67;;;;;;;;;;5086518;28;20494;-74
2022/04/17 01:52:09;;;;;;;6.05;1.92;;;;;;;;;;5086318;28;20066;-74
2022/04/17 01:54:39;;;;;;;10.88;1.80;;;;;;;;;;5088845;28;20051;-74
2022/04/17 01:57:08;;;;;;;11.95;1.77;;;;;;;;;;5090296;28;20059;-74
2022/04/17 01:59:38;;;;;;;10.38;1.75;;;;;;;;;;5090315;28;20126;-74
2022/04/17 02:02:08;;;;;;;5.75;1.50;;;;;;;;;;5090586;28;20070;-73
2022/04/17 02:04:38;;;;;;;8.20;1.73;;;;;;;;;;5090306;28;20070;-73
2022/04/17 02:07:08;;;;;;;10.82;1.92;;;;;;;;;;5090447;28;20502;-73
2022/04/17 02:09:38;;;;;;;10.15;1.40;;;;;;;;;;5090647;28;20054;-73
2022/04/17 02:12:08;;;;;;;9.20;1.20;;;;;;;;;;5090420;28;20040;-73
2022/04/17 02:14:38;;;;;;;8.68;1.10;;;;;;;;;;5090111;28;20036;-74
2022/04/17 02:17:08;;;;;;;8.88;1.33;;;;;;;;;;5089731;28;20052;-73
2022/04/17 02:19:38;;;;;;;14.35;1.83;;;;;;;;;;5090123;28;20044;-73
2022/04/17 02:22:07;;;;;;;16.08;1.73;;;;;;;;;;5090764;28;20052;-73
2022/04/17 02:24:37;;;;;;;16.10;2.03;;;;;;;;;;5089488;28;20059;-73
2022/04/17 02:27:07;;;;;;;10.00;1.25;;;;;;;;;;5089205;28;20601;-73
2022/04/17 02:29:38;;;;;;;10.13;1.25;;;;;;;;;;5089240;28;20052;-74
2022/04/17 02:32:08;;;;;;;9.55;1.45;;;;;;;;;;5088817;28;20060;-73
2022/04/17 02:34:38;;;;;;;16.25;1.70;;;;;;;;;;5071626;28;20040;-73
2022/04/17 02:37:08;;;;;;;5.13;1.10;;;;;;;;;;5089784;28;20055;-74
2022/04/17 02:39:38;;;;;;;10.95;1.55;;;;;;;;;;5090538;28;20051;-73
2022/04/17 02:42:08;;;;;;;5.70;1.20;;;;;;;;;;5089700;28;20048;-73
2022/04/17 02:44:37;;;;;;;11.00;1.83;;;;;;;;;;5089830;28;20070;-73
2022/04/17 02:49:55;;;;;;;9.52;1.80;;;;;;;;;;5088981;28;20047;-74
2022/04/17 02:52:25;;;;;;;7.18;1.05;;;;;;;;;;5088723;28;20051;-73
2022/04/17 02:54:56;;;;;;;8.48;1.52;;;;;;;;;;5089446;28;20048;-73
2022/04/17 02:57:26;;;;;;;8.27;1.45;;;;;;;;;;5089146;28;20055;-74
2022/04/17 02:59:56;;;;;;;7.70;1.65;;;;;;;;;;5089022;28;20048;-73
2022/04/17 03:08:05;;;;;;;10.65;2.00;;;;;;;;;;5087916;28;20063;-74
2022/04/17 03:10:41;;;;;;;9.00;1.88;;;;;;;;;;5088630;28;20521;-73
2022/04/17 03:13:11;;;;;;;13.57;2.15;;;;;;;;;;5070498;28;20044;-73
2022/04/17 03:15:41;;;;;;;8.75;1.88;;;;;;;;;;5088399;28;20149;-73
2022/04/17 03:18:13;;;;;;;11.82;1.73;;;;;;;;;;5088808;28;20040;-73
2022/04/17 03:20:43;;;;;;;;;;;;;;;;;;5088620;28;20056;-74
2022/04/17 03:23:14;;;;;;;14.27;1.73;;;;;;;;;;5088632;28;19924;-74
2022/04/17 03:25:44;;;;;;;13.75;1.95;;;;;;;;;;5088590;28;20044;-73
2022/04/17 03:28:15;;;;;;;8.77;1.70;;;;;;;;;;5088681;28;20402;-73
2022/04/17 03:30:44;;;;;;;11.55;1.80;;;;;;;;;;5088697;28;20380;-73
2022/04/17 03:33:15;;;;;;;9.13;1.63;;;;;;;;;;5088914;28;20052;-73
2022/04/17 03:35:45;;;;;;;11.85;1.85;;;;;;;;;;5088119;28;20060;-74
2022/04/17 03:38:14;;;;;;;7.43;1.40;;;;;;;;;;5088063;28;20521;-73
2022/04/17 03:40:44;;;;;;;6.90;1.63;;;;;;;;;;5088381;28;20426;-73
2022/04/17 03:43:14;;;;;;;10.35;1.60;;;;;;;;;;5087932;28;20044;-74
2022/04/17 03:45:47;;;;;;;11.40;1.90;;;;;;;;;;5069278;28;20079;-73
2022/04/17 03:48:18;;;;;;;14.75;1.88;;;;;;;;;;5087568;28;21259;-76
2022/04/17 03:50:47;;;;;;;9.63;1.45;;;;;;;;;;5087786;28;20055;-73
2022/04/17 03:53:17;;;;;;;16.23;2.28;;;;;;;;;;5087588;28;20063;-73
2022/04/17 03:55:47;;;;;;;11.95;1.55;;;;;;;;;;5070550;28;20071;-73
2022/04/17 03:58:17;;;;;;;15.38;1.90;;;;;;;;;;5088274;28;20048;-73
2022/04/17 04:00:47;;;;;;;12.77;2.08;;;;;;;;;;5088722;28;20048;-74
2022/04/17 04:03:17;;;;;;;8.40;1.45;;;;;;;;;;5087588;28;20059;-73
2022/04/17 04:05:46;;;;;;;6.22;1.63;;;;;;;;;;5088128;28;20047;-73
2022/04/17 04:08:18;;;;;;;11.18;1.42;;;;;;;;;;5087908;28;20048;-73
2022/04/17 04:10:48;;;;;;;5.07;1.58;;;;;;;;;;5087780;28;20086;-73
2022/04/17 04:13:19;;;;;;;14.65;1.40;;;;;;;;;;5087449;28;20048;-74
2022/04/17 04:15:49;;;;;;;14.68;1.75;;;;;;;;;;5087317;28;20058;-73
2022/04/17 04:18:19;;;;;;;7.30;1.27;;;;;;;;;;5069823;28;20384;-73
2022/04/17 04:20:48;;;;;;;7.68;1.67;;;;;;;;;;5087854;28;20521;-73
2022/04/17 04:23:21;;;;;;;6.32;1.48;;;;;;;;;;5088096;28;20055;-74
2022/04/17 04:25:51;;;;;;;10.90;1.80;;;;;;;;;;5087947;28;20395;-73
2022/04/17 04:28:38;;;;;;;9.23;1.45;;;;;;;;;;5087652;28;20434;-73
2022/04/17 04:31:15;;;;;;;12.15;1.90;;;;;;;;;;5087480;28;20110;-73
2022/04/17 04:33:45;;;;;;;15.95;1.90;;;;;;;;;;5087209;28;20051;-73
2022/04/17 04:36:15;;;;;;;7.78;1.45;;;;;;;;;;5085962;28;20048;-73
2022/04/17 04:38:44;;;;;;;11.50;1.42;;;;;;;;;;5087539;28;20052;-73
2022/04/17 04:41:14;;;;;;;8.00;1.42;;;;;;;;;;5087419;28;20430;-73
2022/04/17 04:43:44;;;;;;;9.63;1.50;;;;;;;;;;5086834;28;20506;-73
2022/04/17 04:46:14;;;;;;;7.07;1.77;;;;;;;;;;5086774;28;20055;-73
2022/04/17 04:51:34;;;;;;;12.00;2.05;;;;;;;;;;5086683;28;20051;-73
2022/04/17 04:54:07;;;;;;;16.33;2.10;;;;;;;;;;5087559;28;20043;-74
2022/04/17 04:56:37;;;;;;;13.45;1.85;;;;;;;;;;5087257;28;20043;-73
2022/04/17 04:59:07;;;;;;;10.48;2.25;;;;;;;;;;5086147;28;20604;-73
2022/04/17 05:01:36;;;;;;;10.00;1.75;;;;;;;;;;5087188;28;20048;-73
2022/04/17 05:04:06;;;;;;;9.20;1.52;;;;;;;;;;5087323;28;20126;-73
2022/04/17 05:06:36;;;;;;;7.20;1.75;;;;;;;;;;5087064;28;20499;-73
2022/04/17 05:09:06;;;;;;;6.40;1.85;;;;;;;;;;5086728;28;20502;-73
2022/04/17 05:11:37;;;;;;;5.93;1.48;;;;;;;;;;5086216;28;20415;-73
2022/04/17 05:14:11;;;;;;;6.75;1.83;;;;;;;;;;5086706;28;20067;-73
2022/04/17 05:16:42;;;;;;;5.90;1.50;;;;;;;;;;5086196;28;20055;-73
2022/04/17 05:19:21;;;;;;;16.58;2.05;;;;;;;;;;5086831;28;20055;-73
2022/04/17 05:21:57;;;;;;;14.57;2.00;;;;;;;;;;5087218;28;20511;-73
2022/04/17 05:24:27;;;;;;;11.25;1.65;;;;;;;;;;5086675;28;20044;-74
2022/04/17 05:26:59;;;;;;;13.65;2.40;;;;;;;;;;5087179;28;20048;-73
2022/04/17 05:29:29;;;;;;;5.95;1.63;;;;;;;;;;5086852;28;20051;-73
2022/04/17 05:32:00;;;;;;;13.50;2.00;;;;;;;;;;5085120;28;20052;-73
2022/04/17 05:34:30;;;;;;;10.45;1.63;;;;;;;;;;5086297;28;20048;-73
2022/04/17 05:37:00;;;;;;;6.78;1.45;;;;;;;;;;5086419;28;20048;-73
2022/04/17 05:39:30;;;;;;;8.13;1.52;;;;;;;;;;5086385;28;20052;-73
2022/04/17 05:42:01;;;;;;;13.07;1.83;;;;;;;;;;5086628;28;20047;-73
2022/04/17 05:44:31;;;;;;;8.18;1.92;;;;;;;;;;5086532;28;20052;-73
2022/04/17 05:47:01;;;;;;;11.98;1.90;;;;;;;;;;5086636;28;20430;-73
2022/04/17 05:49:31;;;;;;;10.63;1.85;;;;;;;;;;5086492;28;20047;-73
2022/04/17 05:52:01;;;;;;;16.70;2.22;;;;;;;;;;5082867;28;20067;-73
2022/04/17 05:54:33;;;;;;;5.88;1.60;;;;;;;;;;5082694;28;20052;-73
2022/04/17 05:57:03;;;;;;;5.70;2.35;;;;;;;;;;5083286;28;20398;-73
2022/04/17 05:59:34;;;;;;;8.50;2.03;;;;;;;;;;5083624;28;20137;-72
2022/04/17 06:02:04;;;;;;;12.70;1.90;;;;;;;;;;5086083;28;20522;-73
2022/04/17 06:04:39;;;;;;;8.60;2.33;;;;;;;;;;5068631;28;20059;-74
2022/04/17 06:07:10;;;;;;;9.32;2.30;;;;;;;;;;5068459;28;20418;-76
2022/04/17 06:09:39;;;;;;;9.65;2.40;;;;;;;;;;5086597;28;20502;-73
2022/04/17 06:12:09;;;;;;;7.68;1.52;;;;;;;;;;5085541;28;20491;-73
2022/04/17 06:14:39;;;;;;;5.32;1.85;;;;;;;;;;5086038;28;20059;-74
2022/04/17 06:17:10;;;;;;;11.73;2.10;;;;;;;;;;5086244;28;20044;-74
2022/04/17 06:19:39;;;;;;;;;;;;;;;;;;5068850;28;20059;-74
2022/04/17 06:22:10;;;;;;;9.63;1.85;;;;;;;;;;5085658;28;20318;-74
2022/04/17 06:24:40;;;;;;;10.52;1.90;;;;;;;;;;5085786;28;20047;-73
2022/04/17 06:27:10;;;;;;;10.60;1.75;;;;;;;;;;5086309;28;20044;-74
2022/04/17 06:29:40;;;;;;;10.27;1.48;;;;;;;;;;5086007;28;20059;-74
2022/04/17 06:32:09;;;;;;;10.68;1.83;;;;;;;;;;5085699;28;20507;-73
2022/04/17 06:34:39;;;;;;;6.03;1.52;;;;;;;;;;5085660;28;20406;-74
2022/04/17 06:37:10;;;;;;;11.90;1.73;;;;;;;;;;5085712;28;20483;-74
2022/04/17 06:39:40;;;;;;;6.65;1.60;;;;;;;;;;5087254;28;20641;-74
2022/04/17 06:42:09;;;;;;;4.38;1.70;;;;;;;;;;5089353;28;20047;-74
2022/04/17 06:44:39;;;;;;;12.23;2.20;;;;;;;;;;5089549;28;20051;-74
2022/04/17 06:47:10;;;;;;;7.45;1.60;;;;;;;;;;5089610;28;20075;-74
2022/04/17 06:49:39;;;;;;;11.88;2.05;;;;;;;;;;5089077;28;20052;-73
2022/04/17 06:52:09;;;;;;;11.25;1.70;;;;;;;;;;5089600;28;20425;-74
2022/04/17 06:54:39;;;;;;;7.30;1.60;;;;;;;;;;5089091;28;20059;-74
2022/04/17 06:57:09;;;;;;;7.55;1.65;;;;;;;;;;5089062;28;20056;-74
2022/04/17 06:59:39;;;;;;;8.60;2.00;;;;;;;;;;5089011;28;20052;-73
2022/04/17 07:02:09;;;;;;;5.32;1.52;;;;;;;;;;5088597;28;20048;-74
2022/04/17 07:04:38;;;;;;;8.00;2.42;;;;;;;;;;5089659;28;20052;-73
2022/04/17 07:07:08;;;;;;;6.95;1.67;;;;;;;;;;5089104;28;20071;-74
2022/04/17 07:09:38;;;;;;;10.07;1.73;;;;;;;;;;5070882;28;20056;-74
2022/04/17 07:12:08;;;;;;;7.30;2.00;;;;;;;;;;5088692;28;20051;-74
2022/04/17 07:14:38;;;;;;;5.25;1.63;;;;;;;;;;5088841;28;20052;-74
2022/04/17 07:17:09;;;;;;;5.25;1.77;;;;;;;;;;5088797;28;20048;-74
2022/04/17 07:19:39;;;;;;;7.85;1.83;;;;;;;;;;5088794;28;20040;-74
2022/04/17 07:22:13;;;;;;;6.70;1.55;;;;;;;;;;5088735;28;20048;-74
2022/04/17 07:24:51;;;;;;;7.88;1.85;;;;;;;;;;5088615;28;20052;-74
2022/04/17 07:27:21;;;;;;;10.65;2.08;;;;;;;;;;5088890;28;20499;-73
2022/04/17 07:32:43;;;;;;;5.07;1.88;;;;;;;;;;5083558;28;20502;-74
2022/04/17 07:35:18;;;;;;;8.73;1.90;;;;;;;;;;5088618;28;20044;-74
2022/04/17 07:37:56;;;;;;;5.28;1.70;;;;;;;;;;5087900;28;20052;-74
2022/04/17 07:40:34;;;;;;;5.95;1.27;;;;;;;;;;5088566;28;20047;-74
2022/04/17 07:43:05;;;;;;;7.20;1.70;;;;;;;;;;5088112;28;20047;-74
2022/04/17 07:45:36;;;;;;;8.30;2.05;;;;;;;;;;5088339;28;20054;-74
2022/04/17 07:48:07;;;;;;;7.30;1.55;;;;;;;;;;5088590;28;20072;-74
2022/04/17 07:50:37;;;;;;;9.55;1.80;;;;;;;;;;5071135;28;20052;-75
2022/04/17 07:53:06;;;;;;;7.28;1.70;;;;;;;;;;5089126;28;20055;-74
2022/04/17 07:55:37;;;;;;;5.10;1.52;;;;;;;;;;5088766;28;20055;-74
2022/04/17 07:58:12;;;;;;;9.40;1.88;;;;;;;;;;5088417;28;20048;-74
2022/04/17 08:00:57;;;;;;;7.20;1.80;;;;;;;;;;5087955;28;20048;-74
2022/04/17 08:06:07;;;;;;;6.97;1.73;;;;;;;;;;5087854;28;20048;-75
2022/04/17 08:08:39;;;;;;;7.70;1.98;;;;;;;;;;5087729;28;20059;-74
2022/04/17 08:11:10;;;;;;;4.70;1.50;;;;;;;;;;5088080;28;20491;-74
2022/04/17 08:13:42;;;;;;;7.03;1.50;;;;;;;;;;5087822;28;20060;-74
2022/04/17 08:16:12;;;;;;;6.95;1.75;;;;;;;;;;5087397;28;20044;-74
2022/04/17 08:18:42;;;;;;;6.67;1.77;;;;;;;;;;5087977;28;20051;-74
2022/04/17 08:21:12;;;;;;;10.65;1.63;;;;;;;;;;5087508;28;20750;-74
2022/04/17 08:23:42;;;;;;;8.27;1.80;;;;;;;;;;5087881;28;20051;-74
2022/04/17 08:26:12;;;;;;;4.70;1.35;;;;;;;;;;5087877;28;20059;-74
2022/04/17 08:28:42;;;;;;;7.90;1.55;;;;;;;;;;5087589;28;20044;-74
2022/04/17 08:31:12;;;;;;;8.13;1.85;;;;;;;;;;5086497;28;20055;-73
2022/04/17 08:33:42;;;;;;;7.65;2.08;;;;;;;;;;5068559;28;20541;-74
2022/04/17 08:36:12;;;;;;;11.90;2.30;;;;;;;;;;5087630;28;20550;-74
2022/04/17 08:38:42;;;;;;;6.00;1.80;;;;;;;;;;5087264;28;20421;-74
2022/04/17 08:41:15;;;;;;;8.52;1.77;;;;;;;;;;5086878;28;20048;-74
2022/04/17 08:43:46;;;;;;;7.72;1.90;;;;;;;;;;5087260;28;20048;-74
2022/04/17 08:46:16;;;;;;;10.93;1.67;;;;;;;;;;5087129;28;20426;-74
2022/04/17 08:48:46;;;;;;;8.40;2.10;;;;;;;;;;5087579;28;20059;-74
2022/04/17 08:51:18;;;;;;;11.02;1.88;;;;;;;;;;5087505;28;20475;-74
2022/04/17 08:53:49;;;;;;;;;;;;;;;;;;5088209;28;20047;-74
2022/04/17 08:56:20;;;;;;;6.75;1.80;;;;;;;;;;5086828;28;19924;-74
2022/04/17 08:58:49;;;;;;;11.13;2.08;;;;;;;;;;5086800;28;20044;-74
2022/04/17 09:01:19;;;;;;;7.60;1.58;;;;;;;;;;5087290;28;20044;-74
2022/04/17 09:03:49;;;;;;;6.65;1.98;;;;;;;;;;5086268;28;20056;-74
2022/04/17 09:06:21;;;;;;;6.32;1.90;;;;;;;;;;5067776;28;20063;-74
2022/04/17 09:09:01;;;;;;;6.78;2.00;;;;;;;;;;5052880;28;20065;-74
2022/04/17 09:11:35;;;;;;;11.30;2.38;;;;;;;;;;5068147;28;20051;-76
2022/04/17 09:14:05;;;;;;;12.95;2.58;;;;;;;;;;5087325;28;20390;-74
2022/04/17 09:16:38;;;;;;;10.65;1.92;;;;;;;;;;5087455;28;20044;-74
2022/04/17 09:19:14;;;;;;;7.38;1.95;;;;;;;;;;5086577;28;20043;-74
2022/04/17 09:21:44;;;;;;;11.55;1.90;;;;;;;;;;5066603;28;20052;-74
2022/04/17 09:24:20;;;;;;;4.53;1.92;;;;;;;;;;5068675;28;20062;-74
2022/04/17 09:26:52;;;;;;;9.23;1.80;;;;;;;;;;5086721;28;20044;-74
2022/04/17 09:29:35;;;;;;;11.48;2.13;;;;;;;;;;5086690;28;20051;-74
2022/04/17 09:32:08;;;;;;;7.32;1.60;;;;;;;;;;5086049;28;20047;-74
2022/04/17 09:35:07;;;;;;;7.13;1.77;;;;;;;;;;5086469;28;20043;-73
2022/04/17 09:37:40;;;;;;;4.90;1.70;;;;;;;;;;5086610;28;20064;-74
2022/04/17 09:40:10;;;;;;;7.88;2.10;;;;;;;;;;5086741;28;20051;-74
2022/04/17 09:42:41;;;;;;;5.15;1.50;;;;;;;;;;5086142;28;20485;-74
2022/04/17 09:45:11;;;;;;;7.10;1.58;;;;;;;;;;5086413;28;20036;-74
2022/04/17 09:47:54;;;;;;;8.45;1.98;;;;;;;;;;5086668;28;20040;-74
2022/04/17 09:50:33;;;;;;;12.68;2.00;;;;;;;;;;5086468;28;20056;-74
2022/04/17 09:53:06;;;;;;;3.38;1.70;;;;;;;;;;5085770;28;20048;-74
2022/04/17 09:55:38;;;;;;;6.00;1.65;;;;;;;;;;5086517;28;20036;-74
2022/04/17 09:58:12;;;;;;;14.80;2.05;;;;;;;;;;5086404;28;20044;-74
2022/04/17 10:00:42;;;;;;;6.90;1.65;;;;;;;;;;5067322;28;21062;-75
2022/04/17 10:03:13;;;;;;;12.10;2.00;;;;;;;;;;5086498;28;20052;-74
2022/04/17 10:05:44;;;;;;;6.82;1.73;;;;;;;;;;5085928;28;20044;-74
2022/04/17 10:08:14;;;;;;;6.47;1.95;;;;;;;;;;5086116;28;20048;-74
2022/04/17 10:10:44;;;;;;;3.63;1.65;;;;;;;;;;5086461;28;20058;-74
2022/04/17 10:13:14;;;;;;;7.32;1.83;;;;;;;;;;5087145;28;20055;-74
2022/04/17 10:15:44;;;;;;;12.77;2.60;;;;;;;;;;5088695;28;20494;-75
2022/04/17 10:18:17;;;;;;;6.40;2.08;;;;;;;;;;5090062;28;20051;-74
2022/04/17 10:20:51;;;;;;;8.13;2.15;;;;;;;;;;5089971;28;20036;-73
2022/04/17 10:23:22;;;;;;;17.75;2.00;;;;;;;;;;5090011;28;20066;-73
2022/04/17 10:25:58;;;;;;;13.27;2.28;;;;;;;;;;5088999;28;20039;-74
2022/04/17 10:28:33;;;;;;;4.20;1.75;;;;;;;;;;5089240;28;20421;-74
2022/04/17 10:31:37;;;;;;;14.98;2.08;;;;;;;;;;5089714;28;20047;-74
2022/04/17 10:34:26;;;;;;;4.15;1.85;;;;;;;;;;5089221;28;20044;-74
2022/04/17 10:37:23;;;;;;;9.45;1.80;;;;;;;;;;5089836;28;20047;-74
2022/04/17 10:39:57;;;;;;;7.70;1.55;;;;;;;;;;5089694;28;20059;-74
2022/04/17 10:42:35;;;;;;;6.25;1.48;;;;;;;;;;5088972;28;20423;-74
2022/04/17 10:45:09;;;;;;;3.38;1.33;;;;;;;;;;5089928;28;20494;-75
2022/04/17 10:59:19;;;;;;;11.65;1.70;;;;;;;;;;5144705;27;20456;-72
2022/04/17 11:01:53;;;;;;;9.43;2.17;;;;;;;;;;5124134;28;20482;-75
2022/04/17 11:04:50;;;;;;;19.13;1.48;;;;;;;;;;5123933;28;20047;-72
2022/04/17 11:07:21;;;;;;;8.48;1.50;;;;;;;;;;5113218;27;20062;-73
2022/04/17 11:10:19;;;;;;;7.82;1.65;;;;;;;;;;5124166;28;20043;-73
2022/04/17 11:12:55;;;;;;;7.05;1.92;;;;;;;;;;5123843;28;20055;-75
2022/04/17 11:15:28;;;;;;;6.65;1.65;;;;;;;;;;5124036;28;20054;-73
2022/04/17 11:18:02;;;;;;;11.27;2.30;;;;;;;;;;5123905;28;20039;-75
2022/04/17 11:20:33;;;;;;;11.38;1.80;;;;;;;;;;5124525;28;20398;-74
2022/04/17 11:23:02;;;;;;;;;;;;;;;;;;5124520;28;20043;-74
2022/04/17 11:25:49;;;;;;;8.30;1.65;;;;;;;;;;5123428;28;20275;-73
2022/04/17 11:28:36;;;;;;;10.18;1.90;;;;;;;;;;5122930;27;20425;-74
2022/04/17 11:31:07;;;;;;;5.55;1.40;;;;;;;;;;5123857;28;20043;-74
2022/04/17 11:33:37;;;;;;;4.57;1.33;;;;;;;;;;5123332;28;20039;-74
2022/04/17 11:36:11;;;;;;;8.45;1.45;;;;;;;;;;5121702;28;20062;-74
2022/04/17 11:38:44;;;;;;;6.70;1.70;;;;;;;;;;5123620;28;20048;-74
2022/04/17 11:41:14;;;;;;;8.45;1.45;;;;;;;;;;5123915;28;20043;-75
2022/04/17 11:44:05;;;;;;;3.03;1.20;;;;;;;;;;5122603;27;20056;-74
2022/04/17 11:46:36;;;;;;;13.13;1.90;;;;;;;;;;5123255;28;20413;-74
2022/04/17 11:49:07;;;;;;;5.45;1.63;;;;;;;;;;5103291;28;20059;-74
2022/04/17 11:51:46;;;;;;;6.80;1.80;;;;;;;;;;5102736;28;20048;-74
2022/04/17 11:54:32;;;;;;;7.35;1.52;;;;;;;;;;5102580;28;20048;-76
2022/04/17 11:57:02;;;;;;;9.02;2.15;;;;;;;;;;5103425;28;20383;-74
2022/04/17 12:00:02;;;;;;;8.27;1.95;;;;;;;;;;5113266;28;20043;-74
2022/04/17 12:02:32;;;;;;;8.40;3.03;;;;;;;;;;5108498;28;20050;-74
2022/04/17 12:05:10;;;;;;;13.65;2.70;;;;;;;;;;5109126;28;20056;-74
2022/04/17 12:07:43;;;;;;;6.68;1.92;;;;;;;;;;5110961;28;20039;-76
2022/04/17 12:10:14;;;;;;;7.47;2.35;;;;;;;;;;5109263;28;20062;-77
2022/04/17 12:12:45;;;;;;;6.80;2.00;;;;;;;;;;5109776;28;20536;-76
2022/04/17 12:15:16;;;;;;;5.10;1.60;;;;;;;;;;5091805;28;20052;-77
2022/04/17 12:18:00;;;;;;;6.90;1.52;;;;;;;;;;5109568;28;20062;-77
2022/04/17 12:20:31;;;;;;;10.77;1.75;;;;;;;;;;5093088;28;20059;-75
2022/04/17 12:23:00;;;;;;;8.27;1.65;;;;;;;;;;5092239;28;20044;-76
2022/04/17 12:25:31;;;;;;;5.18;1.45;;;;;;;;;;5112032;28;20051;-75
2022/04/17 12:28:01;;;;;;;8.15;1.92;;;;;;;;;;5110210;28;20044;-77
2022/04/17 12:30:31;;;;;;;9.55;1.52;;;;;;;;;;5111001;28;20051;-77
2022/04/17 12:33:00;;;;;;;7.70;1.70;;;;;;;;;;5094915;28;20533;-76
2022/04/17 12:35:33;;;;;;;5.13;1.40;;;;;;;;;;5074335;28;20057;-76
2022/04/17 12:38:06;;;;;;;4.75;1.52;;;;;;;;;;5090900;28;20062;-74
2022/04/17 12:40:44;;;;;;;9.88;1.45;;;;;;;;;;5108892;28;20429;-77
2022/04/17 12:43:16;;;;;;;8.95;1.77;;;;;;;;;;5108497;28;20051;-76
2022/04/17 12:46:00;;;;;;;5.55;1.80;;;;;;;;;;5109345;28;20051;-76
2022/04/17 12:48:35;;;;;;;3.55;1.70;;;;;;;;;;5110438;28;20520;-76
2022/04/17 12:51:09;;;;;;;5.38;1.20;;;;;;;;;;5108917;28;20047;-77
2022/04/17 12:53:41;;;;;;;3.95;1.13;;;;;;;;;;5108991;28;20044;-79
2022/04/17 12:56:12;;;;;;;5.68;1.42;;;;;;;;;;5108722;28;20051;-77
2022/04/17 12:58:50;;;;;;;;;;;;;;;;;;5107964;28;20437;-76
2022/04/17 13:01:22;;;;;;;5.25;1.38;;;;;;;;;;5109160;28;19923;-79
2022/04/17 13:04:20;;;;;;;5.88;1.38;;;;;;;;;;5108210;28;20058;-77
2022/04/17 13:07:16;;;;;;;7.47;1.52;;;;;;;;;;5107045;28;20058;-73
2022/04/17 13:10:15;;;;;;;4.18;1.33;;;;;;;;;;5108455;28;20520;-74
2022/04/17 13:12:46;;;;;;;6.78;1.45;;;;;;;;;;5088031;28;20426;-74
2022/04/17 13:15:17;;;;;;;3.33;1.15;;;;;;;;;;5107797;28;20044;-75
2022/04/17 13:17:51;;;;;;;9.02;1.63;;;;;;;;;;5107256;28;20051;-77
2022/04/17 13:20:23;;;;;;;6.95;1.30;;;;;;;;;;5105482;28;20035;-74
2022/04/17 13:22:54;;;;;;;6.00;1.50;;;;;;;;;;5107340;28;20093;-75
2022/04/17 13:25:24;;;;;;;7.78;1.60;;;;;;;;;;5109229;28;20066;-75
2022/04/17 13:27:54;;;;;;;4.65;1.17;;;;;;;;;;5077012;28;20043;-75
2022/04/17 13:30:25;;;;;;;9.55;1.80;;;;;;;;;;5110061;28;20055;-73
2022/04/17 13:32:55;;;;;;;10.65;1.48;;;;;;;;;;5090719;28;20059;-74
2022/04/17 13:35:27;;;;;;;10.38;1.63;;;;;;;;;;5109127;28;20047;-74
2022/04/17 13:38:13;;;;;;;9.48;1.33;;;;;;;;;;5108018;28;20043;-76
2022/04/17 13:40:50;;;;;;;7.25;2.00;;;;;;;;;;5107153;28;20039;-75
2022/04/17 13:43:23;;;;;;;9.75;1.70;;;;;;;;;;5106064;28;20050;-75
2022/04/17 13:45:53;;;;;;;4.40;1.17;;;;;;;;;;5088294;28;20048;-75
2022/04/17 13:48:25;;;;;;;8.23;1.57;;;;;;;;;;5108441;28;20059;-75
2022/04/17 13:50:55;;;;;;;7.15;1.27;;;;;;;;;;5107568;28;20043;-77
2022/04/17 13:53:25;;;;;;;7.07;1.40;;;;;;;;;;5107216;28;20059;-78
2022/04/17 13:55:55;;;;;;;10.30;1.85;;;;;;;;;;5089696;28;20068;-75
2022/04/17 13:58:26;;;;;;;5.35;1.30;;;;;;;;;;5107169;28;20060;-75
2022/04/17 14:00:57;;;;;;;7.40;3.03;;;;;;;;;;5108071;28;20059;-75
2022/04/17 14:03:27;;;;;;;12.55;1.70;;;;;;;;;;5107455;28;20418;-75
2022/04/17 14:05:59;;;;;;;6.22;1.50;;;;;;;;;;5107025;28;20043;-77
2022/04/17 14:08:29;;;;;;;8.35;1.92;;;;;;;;;;5107923;28;20517;-75
2022/04/17 14:10:59;;;;;;;8.43;1.80;;;;;;;;;;5106683;28;20082;-75
2022/04/17 14:13:29;;;;;;;8.15;1.85;;;;;;;;;;5089669;28;20285;-74
2022/04/17 14:15:59;;;;;;;11.18;1.95;;;;;;;;;;5107326;28;20047;-77
2022/04/17 14:18:29;;;;;;;6.35;1.25;;;;;;;;;;5086242;28;20054;-76
2022/04/17 14:20:59;;;;;;;8.97;1.30;;;;;;;;;;5085150;28;20043;-77
2022/04/17 14:23:29;;;;;;;10.52;1.38;;;;;;;;;;5086531;28;20110;-73
2022/04/17 14:26:01;;;;;;;6.35;1.48;;;;;;;;;;5086555;28;20044;-78
2022/04/17 14:28:31;;;;;;;8.10;1.40;;;;;;;;;;5086921;28;20510;-76
2022/04/17 14:31:03;;;;;;;10.88;1.50;;;;;;;;;;5068917;28;20055;-77
2022/04/17 14:33:33;;;;;;;8.15;1.50;;;;;;;;;;5085980;28;20040;-73
2022/04/17 14:36:04;;;;;;;7.78;1.67;;;;;;;;;;5065207;28;20055;-77
2022/04/17 14:38:34;;;;;;;9.23;1.70;;;;;;;;;;5086549;28;20055;-75
2022/04/17 14:41:03;;;;;;;2.78;1.20;;;;;;;;;;5087010;28;20059;-77
2022/04/17 14:43:38;;;;;;;9.75;1.58;;;;;;;;;;5085986;28;20058;-75
2022/04/17 14:46:08;;;;;;;9.35;2.25;;;;;;;;;;5085992;28;20569;-76
2022/04/17 14:48:38;;;;;;;;;;;;;;;;;;5086508;28;20506;-73
2022/04/17 14:51:09;;;;;;;11.10;1.92;;;;;;;;;;5085551;28;19928;-75
2022/04/17 14:53:40;;;;;;;3.13;1.20;;;;;;;;;;5086124;28;20052;-74
2022/04/17 14:56:11;;;;;;;7.30;1.65;;;;;;;;;;5087010;28;20063;-74
2022/04/17 14:58:41;;;;;;;7.63;1.30;;;;;;;;;;5085610;28;20063;-75
2022/04/17 15:01:11;;;;;;;7.28;1.45;;;;;;;;;;5086069;28;20062;-75
2022/04/17 15:03:43;;;;;;;7.15;1.52;;;;;;;;;;5085439;28;20036;-74
2022/04/17 15:06:13;;;;;;;7.88;2.13;;;;;;;;;;5085182;28;20502;-74
2022/04/17 15:08:44;;;;;;;5.97;1.50;;;;;;;;;;5085843;28;20400;-75
2022/04/17 15:11:13;;;;;;;6.57;1.20;;;;;;;;;;5068832;28;20050;-74
2022/04/17 15:13:43;;;;;;;9.57;1.50;;;;;;;;;;5086870;28;21045;-76
2022/04/17 15:16:14;;;;;;;3.67;1.45;;;;;;;;;;5086495;28;20052;-75
2022/04/17 15:18:44;;;;;;;8.47;1.67;;;;;;;;;;5087349;28;20132;-74
2022/04/17 15:21:14;;;;;;;12.63;1.52;;;;;;;;;;5067460;28;20784;-76
2022/04/17 15:23:43;;;;;;;5.25;1.55;;;;;;;;;;5085164;28;20059;-75
2022/04/17 15:26:15;;;;;;;7.50;1.80;;;;;;;;;;5086300;28;20510;-75
2022/04/17 15:28:46;;;;;;;8.25;1.65;;;;;;;;;;5085034;28;20420;-75
2022/04/17 15:31:16;;;;;;;11.82;1.83;;;;;;;;;;5084665;28;20036;-76
2022/04/17 15:33:49;;;;;;;7.03;2.20;;;;;;;;;;5087497;28;20126;-76
2022/04/17 15:36:19;;;;;;;5.33;1.57;;;;;;;;;;5071560;28;20569;-75
2022/04/17 15:38:52;;;;;;;;;;;;;;;;;;5090214;28;20545;-74
2022/04/17 15:41:27;;;;;;;9.57;1.45;;;;;;;;;;5071675;28;19928;-75